createdAt,value
2023-03-11T00:01:26.918Z,98746.06
2023-03-11T00:03:54.750Z,98785.22
2023-03-11T00:06:23.955Z,98801.00
2023-03-11T00:08:52.323Z,98817.66
2023-03-11T00:11:22.473Z,98811.66
2023-03-11T00:13:50.300Z,98822.38
2023-03-11T00:16:18.066Z,98874.56
2023-03-11T00:18:45.999Z,98883.50
2023-03-11T00:21:17.067Z,98900.06
2023-03-11T00:23:46.413Z,98922.09
2023-03-11T00:26:14.228Z,98920.38
2023-03-11T00:28:41.981Z,98942.91
2023-03-11T00:31:09.864Z,98948.03
2023-03-11T00:33:37.667Z,98956.81
2023-03-11T00:36:06.923Z,98982.84
2023-03-11T00:38:34.797Z,98969.75
2023-03-11T00:41:04.053Z,98994.13
2023-03-11T00:43:31.843Z,98972.34
2023-03-11T00:45:59.712Z,98963.00
2023-03-11T00:48:27.645Z,98981.25
2023-03-11T00:50:55.405Z,98984.94
2023-03-11T00:53:23.232Z,99043.19
2023-03-11T00:55:51.011Z,99037.06
2023-03-11T00:58:20.589Z,99027.44
2023-03-11T01:00:48.357Z,98998.22
2023-03-11T01:03:16.104Z,99003.72
2023-03-11T01:05:44.063Z,99052.47
2023-03-11T01:08:12.090Z,99052.63
2023-03-11T01:10:39.834Z,99071.06
2023-03-11T01:13:07.563Z,99089.13
2023-03-11T01:15:38.292Z,99094.53
2023-03-11T01:18:07.692Z,99116.19
2023-03-11T01:20:36.258Z,99120.59
2023-03-11T01:23:04.289Z,99131.81
2023-03-11T01:25:32.122Z,99150.16
2023-03-11T01:27:59.856Z,99137.75
2023-03-11T01:30:29.505Z,99123.88
2023-03-11T01:32:59.617Z,99157.81
2023-03-11T01:35:29.423Z,99151.75
2023-03-11T01:37:57.618Z,99143.84
2023-03-11T01:40:30.033Z,99110.66
2023-03-11T01:42:58.217Z,99136.78
2023-03-11T01:45:40.115Z,99172.47
2023-03-11T01:48:10.273Z,99133.34
2023-03-11T01:50:42.229Z,99139.56
2023-03-11T01:53:10.911Z,99137.09
2023-03-11T01:55:39.452Z,99161.47
2023-03-11T01:58:11.390Z,99197.88
2023-03-11T02:00:39.828Z,99168.28
2023-03-11T02:03:15.417Z,99150.09
2023-03-11T02:05:43.855Z,99186.84
2023-03-11T02:08:11.898Z,99209.28
2023-03-11T02:10:42.060Z,99205.91
2023-03-11T02:13:10.656Z,99204.91
2023-03-11T02:15:40.064Z,99202.97
2023-03-11T02:18:10.608Z,99207.16
2023-03-11T02:20:46.506Z,99168.88
2023-03-11T02:23:15.864Z,99196.81
2023-03-11T02:25:50.006Z,99192.56
2023-03-11T02:28:21.671Z,99202.97
2023-03-11T02:30:51.226Z,99195.25
2023-03-11T02:33:20.383Z,99188.97
2023-03-11T02:35:48.273Z,99200.47
2023-03-11T02:38:16.329Z,99199.66
2023-03-11T02:40:56.766Z,99199.66
2023-03-11T02:43:33.458Z,99229.31
2023-03-11T02:46:02.764Z,99231.03
2023-03-11T02:48:31.587Z,99225.97
2023-03-11T02:51:00.549Z,99231.19
2023-03-11T02:53:31.678Z,99255.66
2023-03-11T02:55:59.378Z,99250.41
2023-03-11T02:58:28.415Z,99288.66
2023-03-11T03:00:56.243Z,99294.63
2023-03-11T03:03:24.085Z,99278.31
2023-03-11T03:05:51.867Z,99294.94
2023-03-11T03:08:19.681Z,99304.47
2023-03-11T03:10:47.677Z,99304.47
2023-03-11T03:13:15.520Z,99302.78
2023-03-11T03:15:44.677Z,99341.94
2023-03-11T03:18:12.544Z,99299.44
2023-03-11T03:20:40.708Z,99331.19
2023-03-11T03:23:08.535Z,99338.13
2023-03-11T03:25:36.293Z,99352.31
2023-03-11T03:28:04.114Z,99383.84
2023-03-11T03:30:32.037Z,99419.72
2023-03-11T03:33:01.825Z,99441.50
2023-03-11T03:35:29.599Z,99448.56
2023-03-11T03:37:57.377Z,99451.31
2023-03-11T03:40:25.127Z,99480.94
2023-03-11T03:42:52.980Z,99494.03
2023-03-11T03:45:20.860Z,99484.50
2023-03-11T03:47:48.662Z,99473.22
2023-03-11T03:50:17.900Z,99522.97
2023-03-11T03:52:45.593Z,99525.63
2023-03-11T03:55:13.641Z,99518.94
2023-03-11T03:57:41.733Z,99549.28
2023-03-11T04:00:10.821Z,99558.94
2023-03-11T04:02:38.683Z,99560.78
2023-03-11T04:05:07.606Z,99587.84
2023-03-11T04:07:37.337Z,99609.75
2023-03-11T04:10:06.426Z,99581.81
2023-03-11T04:12:34.287Z,99571.50
2023-03-11T04:15:02.196Z,99602.97
2023-03-11T04:17:29.960Z,99617.78
2023-03-11T04:19:57.691Z,99619.59
2023-03-11T04:22:25.712Z,99620.44
2023-03-11T04:24:54.948Z,99637.09
2023-03-11T04:27:22.667Z,99653.63
2023-03-11T04:29:50.511Z,99670.94
2023-03-11T04:32:18.332Z,99637.84
2023-03-11T04:34:46.161Z,99646.69
2023-03-11T04:37:13.987Z,99652.09
2023-03-11T04:39:41.880Z,99658.13
2023-03-11T04:42:15.831Z,99683.38
2023-03-11T04:44:43.560Z,99677.25
2023-03-11T04:47:11.331Z,99665.88
2023-03-11T04:49:39.297Z,99649.41
2023-03-11T04:52:07.109Z,99667.69
2023-03-11T04:54:34.858Z,99671.16
2023-03-11T04:57:02.572Z,99646.78
2023-03-11T04:59:31.893Z,99685.28
2023-03-11T05:01:59.623Z,99652.06
2023-03-11T05:04:27.523Z,99661.66
2023-03-11T05:06:55.369Z,99661.66
2023-03-11T05:09:23.139Z,99667.69
2023-03-11T05:11:50.903Z,99637.03
2023-03-11T05:14:18.821Z,99641.31
2023-03-11T05:16:47.907Z,99618.72
2023-03-11T05:19:35.033Z,99641.34
2023-03-11T05:22:03.123Z,99636.09
2023-03-11T05:24:31.072Z,99665.69
2023-03-11T05:26:58.978Z,99674.38
2023-03-11T05:29:26.949Z,99667.50
2023-03-11T05:31:56.164Z,99657.25
2023-03-11T05:34:24.348Z,99666.22
2023-03-11T05:36:52.181Z,99683.88
2023-03-11T05:39:19.965Z,99737.03
2023-03-11T05:41:47.698Z,99728.47
2023-03-11T05:44:15.561Z,99744.13
2023-03-11T05:46:43.491Z,99778.00
2023-03-11T05:49:12.605Z,99777.88
2023-03-11T05:51:40.594Z,99725.44
2023-03-11T05:54:14.840Z,99722.94
2023-03-11T05:56:43.371Z,99749.19
2023-03-11T05:59:11.421Z,99715.28
2023-03-11T06:01:39.364Z,99766.81
2023-03-11T06:04:07.992Z,99765.94
2023-03-11T06:06:37.752Z,99760.69
2023-03-11T06:09:05.460Z,99730.91
2023-03-11T06:11:33.299Z,99720.28
2023-03-11T06:14:01.153Z,99700.88
2023-03-11T06:16:28.980Z,99719.88
2023-03-11T06:18:57.052Z,99671.84
2023-03-11T06:21:26.699Z,99677.16
2023-03-11T06:23:56.300Z,99664.81
2023-03-11T06:26:25.038Z,99650.72
2023-03-11T06:28:53.527Z,99601.91
2023-03-11T06:31:24.446Z,99682.84
2023-03-11T06:33:53.108Z,99628.66
2023-03-11T06:36:21.401Z,99595.34
2023-03-11T06:38:50.178Z,99645.97
2023-03-11T06:41:19.436Z,99536.19
2023-03-11T06:43:47.163Z,99552.03
2023-03-11T06:46:17.190Z,99623.63
2023-03-11T06:48:46.036Z,99573.88
2023-03-11T06:51:15.066Z,99545.22
2023-03-11T06:53:43.138Z,99605.44
2023-03-11T06:56:12.851Z,99638.28
2023-03-11T06:58:43.814Z,99627.84
2023-03-11T07:01:14.344Z,99607.53
2023-03-11T07:03:42.687Z,99669.44
2023-03-11T07:06:13.920Z,99861.72
2023-03-11T07:08:41.912Z,100022.47
2023-03-11T07:11:13.592Z,99890.91
2023-03-11T07:13:43.486Z,99734.19
2023-03-11T07:16:15.645Z,99403.03
2023-03-11T07:18:44.482Z,99220.69
2023-03-11T07:21:15.045Z,99063.41
2023-03-11T07:23:43.414Z,99145.94
2023-03-11T07:26:12.035Z,99166.94
2023-03-11T07:28:40.671Z,99195.38
2023-03-11T07:31:11.160Z,99248.66
2023-03-11T07:33:39.374Z,99441.38
2023-03-11T07:36:08.919Z,99490.66
2023-03-11T07:38:36.779Z,99345.13
2023-03-11T07:41:05.149Z,99399.69
2023-03-11T07:43:33.924Z,99230.63
2023-03-11T07:46:06.809Z,99327.41
2023-03-11T07:48:36.981Z,99543.56
2023-03-11T07:51:05.781Z,99606.50
2023-03-11T07:53:34.213Z,99570.78
2023-03-11T07:56:02.870Z,99507.50
2023-03-11T07:58:30.943Z,99502.69
2023-03-11T08:01:04.223Z,99348.91
2023-03-11T08:03:32.181Z,99418.50
2023-03-11T08:06:01.723Z,99441.69
2023-03-11T08:08:29.752Z,99437.13
2023-03-11T08:10:57.483Z,99477.97
2023-03-11T08:13:25.199Z,99365.25
2023-03-11T08:15:52.882Z,99155.78
2023-03-11T08:18:20.585Z,99167.53
2023-03-11T08:20:48.285Z,99205.06
2023-03-11T08:23:17.648Z,99298.94
2023-03-11T08:25:45.473Z,99214.22
2023-03-11T08:28:13.213Z,99164.78
2023-03-11T08:30:42.084Z,99366.78
2023-03-11T08:33:09.955Z,99441.72
2023-03-11T08:35:37.826Z,99431.63
2023-03-11T08:38:06.034Z,99468.13
2023-03-11T08:40:35.236Z,99475.66
2023-03-11T08:43:02.941Z,99433.16
2023-03-11T08:45:31.006Z,99460.81
2023-03-11T08:47:58.785Z,99417.53
2023-03-11T08:50:27.221Z,99306.78
2023-03-11T08:52:56.508Z,99331.09
2023-03-11T08:55:27.754Z,99375.69
2023-03-11T08:57:57.385Z,99336.63
2023-03-11T09:00:25.168Z,99404.59
2023-03-11T09:02:53.037Z,99317.78
2023-03-11T09:08:21.179Z,99570.25
2023-03-11T09:10:49.184Z,99512.81
2023-03-11T09:13:18.682Z,99511.97
2023-03-11T09:15:46.717Z,99633.72
2023-03-11T09:18:15.544Z,99554.75
2023-03-11T09:20:44.601Z,99615.16
2023-03-11T09:23:15.666Z,99704.31
2023-03-11T09:25:43.705Z,99676.09
2023-03-11T09:28:11.420Z,99716.09
2023-03-11T09:30:40.728Z,99769.72
2023-03-11T09:33:09.514Z,99816.38
2023-03-11T09:35:39.384Z,99612.00
2023-03-11T09:38:07.401Z,99700.25
2023-03-11T09:40:52.862Z,99660.06
2023-03-11T09:43:40.177Z,99616.59
2023-03-11T09:46:28.613Z,99707.06
2023-03-11T09:49:05.978Z,99605.44
2023-03-11T09:51:39.081Z,99640.59
2023-03-11T09:54:12.299Z,99673.78
2023-03-11T09:56:44.373Z,99712.59
2023-03-11T09:59:19.529Z,99560.34
2023-03-11T10:01:51.249Z,99593.69
2023-03-11T10:04:24.397Z,99542.22
2023-03-11T10:06:53.028Z,99541.78
2023-03-11T10:09:32.518Z,99660.66
2023-03-11T10:12:26.877Z,99794.56
2023-03-11T10:15:09.172Z,99676.91
2023-03-11T10:17:58.705Z,99518.31
2023-03-11T10:20:32.732Z,99667.16
2023-03-11T10:23:11.301Z,99604.53
2023-03-11T10:25:51.048Z,99556.31
2023-03-11T10:28:21.844Z,99610.97
2023-03-11T10:30:54.511Z,99641.19
2023-03-11T10:33:31.441Z,99725.53
2023-03-11T10:36:05.044Z,99564.25
2023-03-11T10:38:35.908Z,99490.56
2023-03-11T10:41:08.092Z,99461.78
2023-03-11T10:43:42.144Z,99280.94
2023-03-11T10:46:20.181Z,99403.81
2023-03-11T10:48:49.853Z,99398.88
2023-03-11T10:51:23.299Z,99507.19
2023-03-11T10:53:53.707Z,99532.97
2023-03-11T10:56:31.748Z,99327.00
2023-03-11T10:59:00.648Z,99413.78
2023-03-11T11:01:29.874Z,99286.94
2023-03-11T11:04:01.858Z,99279.53
2023-03-11T11:06:31.830Z,99457.47
2023-03-11T11:09:16.450Z,99472.56
2023-03-11T11:12:00.976Z,99490.06
2023-03-11T11:14:44.355Z,99439.41
2023-03-11T11:17:22.368Z,99345.78
2023-03-11T11:19:53.300Z,99292.34
2023-03-11T11:22:23.388Z,99326.78
2023-03-11T11:24:53.617Z,99393.72
2023-03-11T11:27:24.473Z,99145.41
2023-03-11T11:30:14.707Z,99087.97
2023-03-11T11:32:43.184Z,99248.31
2023-03-11T11:35:15.221Z,99455.94
2023-03-11T11:37:47.368Z,99366.50
2023-03-11T11:40:30.868Z,99087.31
2023-03-11T11:43:02.463Z,99130.22
2023-03-11T11:45:54.192Z,98946.91
2023-03-11T11:48:30.545Z,98880.03
2023-03-11T11:51:04.467Z,98982.53
2023-03-11T11:53:42.151Z,99079.31
2023-03-11T11:56:10.415Z,98920.34
2023-03-11T11:58:41.776Z,99088.44
2023-03-11T12:01:17.055Z,99147.09
2023-03-11T12:04:23.346Z,99084.81
2023-03-11T12:07:04.069Z,99175.91
2023-03-11T12:09:39.669Z,99154.66
2023-03-11T12:12:20.746Z,99051.06
2023-03-11T12:15:00.284Z,99079.38
2023-03-11T12:17:30.531Z,98809.19
2023-03-11T12:20:02.043Z,98860.09
2023-03-11T12:23:11.199Z,98956.28
2023-03-11T12:25:45.527Z,98983.28
2023-03-11T12:28:22.663Z,99002.66
2023-03-11T12:30:53.738Z,99083.13
2023-03-11T12:33:33.590Z,99080.50
2023-03-11T12:36:09.099Z,98911.06
2023-03-11T12:38:41.659Z,99158.56
2023-03-11T12:41:28.298Z,99071.28
2023-03-11T12:44:02.361Z,98761.78
2023-03-11T12:47:09.770Z,98948.50
2023-03-11T12:49:39.186Z,98831.31
2023-03-11T12:52:28.897Z,98721.84
2023-03-11T12:55:39.140Z,98675.69
2023-03-11T12:58:38.431Z,98739.06
2023-03-11T13:01:42.072Z,98835.88
2023-03-11T13:04:23.528Z,98916.81
2023-03-11T13:07:21.662Z,98872.66
2023-03-11T13:10:03.912Z,98984.69
2023-03-11T13:12:41.979Z,98775.50
2023-03-11T13:15:33.521Z,98627.50
2023-03-11T13:18:05.346Z,98749.53
2023-03-11T13:21:00.660Z,98873.19
2023-03-11T13:23:35.060Z,98540.63
2023-03-11T13:26:41.346Z,98335.50
2023-03-11T13:29:41.938Z,98419.22
2023-03-11T13:32:43.385Z,98599.28
2023-03-11T13:35:32.750Z,98513.31
2023-03-11T13:38:18.461Z,98655.66
2023-03-11T13:40:47.862Z,98692.97
2023-03-11T13:43:18.669Z,98724.31
2023-03-11T13:45:52.644Z,98659.34
2023-03-11T13:48:28.069Z,98666.22
2023-03-11T13:51:01.600Z,98606.59
2023-03-11T13:53:33.621Z,98527.69
2023-03-11T13:56:01.506Z,98520.47
2023-03-11T13:58:29.968Z,98622.63
2023-03-11T14:01:00.248Z,98696.84
2023-03-11T14:03:35.279Z,98650.56
2023-03-11T14:06:08.216Z,98697.72
2023-03-11T14:08:37.645Z,98672.88
2023-03-11T14:11:16.864Z,98744.41
2023-03-11T14:13:46.884Z,98783.72
2023-03-11T14:16:18.443Z,98561.13
2023-03-11T14:18:50.997Z,98739.84
2023-03-11T14:21:24.676Z,98706.16
2023-03-11T14:23:54.846Z,98713.16
2023-03-11T14:26:26.495Z,98657.97
2023-03-11T14:28:56.460Z,98931.34
2023-03-11T14:31:31.763Z,98759.00
2023-03-11T14:34:04.525Z,98748.38
2023-03-11T14:36:42.272Z,98763.38
2023-03-11T14:39:27.477Z,98870.56
2023-03-11T14:41:59.792Z,98526.31
2023-03-11T14:44:29.565Z,98446.38
2023-03-11T14:47:12.707Z,98224.34
2023-03-11T14:49:44.278Z,98388.56
2023-03-11T14:52:21.654Z,98464.97
2023-03-11T14:54:52.766Z,98375.34
2023-03-11T14:57:25.604Z,98474.25
2023-03-11T14:59:54.635Z,98498.09
2023-03-11T15:02:39.914Z,98330.59
2023-03-11T15:05:19.036Z,98326.91
2023-03-11T15:07:52.717Z,98346.66
2023-03-11T15:10:20.632Z,98246.97
2023-03-11T15:12:51.384Z,98223.31
2023-03-11T15:15:26.294Z,98201.75
2023-03-11T15:18:00.346Z,98255.44
2023-03-11T15:20:31.543Z,98287.16
2023-03-11T15:23:02.895Z,98262.31
2023-03-11T15:25:34.268Z,98216.03
2023-03-11T15:28:17.183Z,98255.53
2023-03-11T15:30:45.252Z,98232.91
2023-03-11T15:33:23.656Z,98348.25
2023-03-11T15:35:52.023Z,98315.63
2023-03-11T15:38:28.817Z,98266.84
2023-03-11T15:40:59.378Z,98271.16
2023-03-11T15:43:30.948Z,98230.25
2023-03-11T15:46:04.659Z,98242.69
2023-03-11T15:48:32.627Z,98294.66
2023-03-11T15:51:01.756Z,98418.84
2023-03-11T15:53:35.381Z,98452.81
2023-03-11T15:56:12.183Z,98411.72
2023-03-11T15:58:43.161Z,98347.25
2023-03-11T16:01:11.266Z,98358.56
2023-03-11T16:03:40.308Z,98402.97
2023-03-11T16:06:08.664Z,98454.78
2023-03-11T16:08:40.600Z,98498.69
2023-03-11T16:11:11.587Z,98513.66
2023-03-11T16:13:39.679Z,98464.72
2023-03-11T16:16:08.261Z,98492.81
2023-03-11T16:18:36.608Z,98530.66
2023-03-11T16:21:09.952Z,98520.19
2023-03-11T16:23:51.499Z,98514.38
2023-03-11T16:26:23.777Z,98578.63
2023-03-11T16:28:56.499Z,98578.78
2023-03-11T16:31:25.191Z,98604.44
2023-03-11T16:33:53.071Z,98601.47
2023-03-11T16:36:21.126Z,98620.38
2023-03-11T16:38:51.518Z,98676.66
2023-03-11T16:41:19.658Z,98659.28
2023-03-11T16:43:47.610Z,98677.09
2023-03-11T16:46:15.382Z,98758.97
2023-03-11T16:48:43.183Z,98727.16
2023-03-11T16:51:10.995Z,98747.88
2023-03-11T16:53:38.832Z,98792.97
2023-03-11T16:56:08.539Z,98817.84
2023-03-11T16:58:36.246Z,98833.81
2023-03-11T17:01:04.270Z,98829.19
2023-03-11T17:03:41.934Z,98869.38
2023-03-11T17:06:11.283Z,98828.81
2023-03-11T17:08:39.194Z,98868.50
2023-03-11T17:11:15.936Z,98874.03
2023-03-11T17:13:43.970Z,98859.53
2023-03-11T17:16:12.049Z,98897.31
2023-03-11T17:18:39.929Z,98897.56
2023-03-11T17:21:08.769Z,98963.34
2023-03-11T17:23:36.696Z,99015.13
2023-03-11T17:26:10.609Z,99043.94
2023-03-11T17:28:39.987Z,99040.50
2023-03-11T17:31:11.618Z,99011.88
2023-03-11T17:33:41.263Z,99051.34
2023-03-11T17:36:12.708Z,99092.59
2023-03-11T17:38:43.470Z,99127.63
2023-03-11T17:41:14.908Z,99190.72
2023-03-11T17:43:47.033Z,99172.31
2023-03-11T17:46:17.918Z,99213.44
2023-03-11T17:48:47.266Z,99197.88
2023-03-11T17:51:17.632Z,99222.56
2023-03-11T17:53:50.400Z,99197.47
2023-03-11T17:56:22.206Z,99285.81
2023-03-11T17:58:50.861Z,99319.97
2023-03-11T18:01:20.688Z,99348.00
2023-03-11T18:03:52.298Z,99356.81
2023-03-11T18:06:21.719Z,99351.59
2023-03-11T18:08:49.860Z,99365.72
2023-03-11T18:11:21.746Z,99399.00
2023-03-11T18:13:49.560Z,99399.97
2023-03-11T18:16:19.484Z,99415.03
2023-03-11T18:18:47.713Z,99459.53
2023-03-11T18:21:17.292Z,99458.91
2023-03-11T18:23:45.878Z,99451.13
2023-03-11T18:26:16.483Z,99455.66
2023-03-11T18:28:46.415Z,99451.53
2023-03-11T18:31:18.158Z,99473.50
2023-03-11T18:33:52.923Z,99491.13
2023-03-11T18:36:23.204Z,99515.56
2023-03-11T18:38:52.514Z,99497.28
2023-03-11T18:41:21.098Z,99504.41
2023-03-11T18:43:53.406Z,99540.31
2023-03-11T18:46:28.505Z,99569.97
2023-03-11T18:49:01.442Z,99554.19
2023-03-11T18:51:31.354Z,99540.38
2023-03-11T18:54:00.007Z,99549.13
2023-03-11T18:56:33.310Z,99553.47
2023-03-11T18:59:02.464Z,99531.72
2023-03-11T19:01:30.814Z,99534.34
2023-03-11T19:04:00.261Z,99561.34
2023-03-11T19:06:29.418Z,99534.38
2023-03-11T19:08:57.820Z,99518.88
2023-03-11T19:11:26.261Z,99573.13
2023-03-11T19:13:54.464Z,99569.78
2023-03-11T19:16:26.141Z,99599.59
2023-03-11T19:18:55.438Z,99623.19
2023-03-11T19:21:24.389Z,99629.41
2023-03-11T19:23:55.568Z,99610.38
2023-03-11T19:26:37.507Z,99630.41
2023-03-11T19:29:11.688Z,99654.84
2023-03-11T19:31:45.333Z,99674.13
2023-03-11T19:34:13.579Z,99656.69
2023-03-11T19:36:41.952Z,99654.16
2023-03-11T19:39:10.478Z,99700.34
2023-03-11T19:41:41.416Z,99640.19
2023-03-11T19:44:09.510Z,99665.56
2023-03-11T19:46:37.636Z,99688.16
2023-03-11T19:49:07.564Z,99682.06
2023-03-11T19:51:49.252Z,99678.63
2023-03-11T19:54:18.904Z,99662.13
2023-03-11T19:56:48.212Z,99666.59
2023-03-11T19:59:16.514Z,99649.19
2023-03-11T20:01:45.262Z,99641.44
2023-03-11T20:04:19.343Z,99678.16
2023-03-11T20:06:47.919Z,99658.03
2023-03-11T20:09:16.333Z,99631.13
2023-03-11T20:11:54.288Z,99636.41
2023-03-11T20:14:23.270Z,99657.41
2023-03-11T20:16:53.881Z,99673.06
2023-03-11T20:19:23.411Z,99656.59
2023-03-11T20:21:51.208Z,99669.84
2023-03-11T20:24:19.216Z,99655.88
2023-03-11T20:26:48.838Z,99667.25
2023-03-11T20:29:19.768Z,99684.66
2023-03-11T20:31:47.731Z,99662.88
2023-03-11T20:34:15.630Z,99694.31
2023-03-11T20:36:45.550Z,99676.06
2023-03-11T20:39:13.674Z,99667.25
2023-03-11T20:41:42.197Z,99665.63
2023-03-11T20:44:13.114Z,99703.00
2023-03-11T20:46:41.276Z,99669.94
2023-03-11T20:49:09.537Z,99662.78
2023-03-11T20:51:39.683Z,99681.09
2023-03-11T20:54:12.303Z,99684.56
2023-03-11T20:56:42.559Z,99635.56
2023-03-11T20:59:13.128Z,99650.50
2023-03-11T21:01:41.517Z,99623.38
2023-03-11T21:04:09.468Z,99601.69
2023-03-11T21:06:40.851Z,99580.91
2023-03-11T21:09:14.706Z,99575.69
2023-03-11T21:11:43.174Z,99576.59
2023-03-11T21:14:11.466Z,99584.53
2023-03-11T21:16:39.638Z,99573.19
2023-03-11T21:19:10.303Z,99591.59
2023-03-11T21:21:38.638Z,99610.88
2023-03-11T21:24:07.788Z,99608.16
2023-03-11T21:26:37.769Z,99601.31
2023-03-11T21:29:06.003Z,99614.34
2023-03-11T21:31:34.476Z,99604.69
2023-03-11T21:34:02.646Z,99613.50
2023-03-11T21:36:30.651Z,99616.84
2023-03-11T21:38:58.631Z,99603.72
2023-03-11T21:41:28.440Z,99567.00
2023-03-11T21:43:58.303Z,99569.56
2023-03-11T21:46:28.056Z,99589.50
2023-03-11T21:48:56.367Z,99536.16
2023-03-11T21:51:24.536Z,99543.06
2023-03-11T21:53:52.524Z,99547.44
2023-03-11T21:56:20.672Z,99515.09
2023-03-11T21:58:49.955Z,99512.50
2023-03-11T22:01:19.271Z,99508.19
2023-03-11T22:03:48.216Z,99500.31
2023-03-11T22:06:16.716Z,99523.03
2023-03-11T22:08:44.714Z,99506.34
2023-03-11T22:11:18.474Z,99496.84
2023-03-11T22:13:47.506Z,99509.88
2023-03-11T22:16:16.364Z,99491.59
2023-03-11T22:18:46.731Z,99496.88
2023-03-11T22:21:16.309Z,99493.44
2023-03-11T22:23:45.079Z,99531.78
2023-03-11T22:26:13.888Z,99506.47
2023-03-11T22:28:41.766Z,99498.78
2023-03-11T22:31:11.132Z,99511.09
2023-03-11T22:33:39.070Z,99519.84
2023-03-11T22:36:09.681Z,99534.66
2023-03-11T22:38:41.444Z,99540.78
2023-03-11T22:41:09.881Z,99528.50
2023-03-11T22:43:38.407Z,99515.41
2023-03-11T22:46:07.946Z,99546.84
2023-03-11T22:48:36.384Z,99533.72
2023-03-11T22:51:04.704Z,99526.66
2023-03-11T22:53:33.945Z,99534.47
2023-03-11T22:56:02.229Z,99488.28
2023-03-11T22:58:30.167Z,99496.94
2023-03-11T23:00:57.951Z,99485.44
2023-03-11T23:03:26.273Z,99468.00
2023-03-11T23:05:54.413Z,99447.94
2023-03-11T23:08:22.281Z,99434.84
2023-03-11T23:10:51.476Z,99433.16
2023-03-11T23:13:19.367Z,99441.91
2023-03-11T23:15:48.793Z,99441.84
2023-03-11T23:18:17.323Z,99430.50
2023-03-11T23:20:45.903Z,99380.06
2023-03-11T23:23:14.445Z,99397.50
2023-03-11T23:25:42.761Z,99412.28
2023-03-11T23:28:12.127Z,99414.00
2023-03-11T23:30:40.820Z,99432.34
2023-03-11T23:33:08.854Z,99424.50
2023-03-11T23:35:41.295Z,99441.94
2023-03-11T23:38:09.450Z,99403.59
2023-03-11T23:40:37.408Z,99409.84
2023-03-11T23:43:05.301Z,99389.88
2023-03-11T23:45:34.445Z,99413.56
2023-03-11T23:48:02.336Z,99398.00
2023-03-11T23:50:30.228Z,99420.81
2023-03-11T23:52:58.023Z,99436.56
2023-03-11T23:55:25.730Z,99463.56
2023-03-11T23:57:53.675Z,99479.31
